sensor_id;sensor_type;location;lat;lon;timestamp;temperature;humidity
13521;DHT22;6832;51.186;3.236;2023-02-11T00:00:00;13.50;62.20
13521;DHT22;6832;51.186;3.236;2023-02-11T00:02:30;13.50;62.30
13521;DHT22;6832;51.186;3.236;2023-02-11T00:04:57;13.50;62.20
13521;DHT22;6832;51.186;3.236;2023-02-11T00:07:27;13.50;62.10
13521;DHT22;6832;51.186;3.236;2023-02-11T00:09:55;13.50;62.20
13521;DHT22;6832;51.186;3.236;2023-02-11T00:12:22;13.50;62.10
13521;DHT22;6832;51.186;3.236;2023-02-11T00:14:49;13.50;62.20
13521;DHT22;6832;51.186;3.236;2023-02-11T00:17:16;13.50;62.20
13521;DHT22;6832;51.186;3.236;2023-02-11T00:19:51;13.50;62.20
13521;DHT22;6832;51.186;3.236;2023-02-11T00:22:18;13.50;62.30
13521;DHT22;6832;51.186;3.236;2023-02-11T00:24:45;13.50;62.20
13521;DHT22;6832;51.186;3.236;2023-02-11T00:27:12;13.50;62.20
13521;DHT22;6832;51.186;3.236;2023-02-11T00:29:39;13.50;62.30
13521;DHT22;6832;51.186;3.236;2023-02-11T00:32:06;13.50;62.20
13521;DHT22;6832;51.186;3.236;2023-02-11T00:34:34;13.60;62.40
13521;DHT22;6832;51.186;3.236;2023-02-11T00:39:51;13.50;62.30
13521;DHT22;6832;51.186;3.236;2023-02-11T00:42:18;13.50;63.00
13521;DHT22;6832;51.186;3.236;2023-02-11T00:44:48;13.40;62.10
13521;DHT22;6832;51.186;3.236;2023-02-11T00:47:16;13.50;62.30
13521;DHT22;6832;51.186;3.236;2023-02-11T00:49:43;13.50;62.30
13521;DHT22;6832;51.186;3.236;2023-02-11T00:52:11;13.50;62.30
13521;DHT22;6832;51.186;3.236;2023-02-11T00:54:38;13.50;62.20
13521;DHT22;6832;51.186;3.236;2023-02-11T00:57:05;13.50;62.20
13521;DHT22;6832;51.186;3.236;2023-02-11T00:59:46;13.50;62.20
13521;DHT22;6832;51.186;3.236;2023-02-11T01:02:13;13.50;62.20
13521;DHT22;6832;51.186;3.236;2023-02-11T01:04:40;13.50;62.20
13521;DHT22;6832;51.186;3.236;2023-02-11T01:07:07;13.50;62.30
13521;DHT22;6832;51.186;3.236;2023-02-11T01:09:38;13.50;62.20
13521;DHT22;6832;51.186;3.236;2023-02-11T01:12:05;13.50;62.30
13521;DHT22;6832;51.186;3.236;2023-02-11T01:14:32;13.50;63.10
13521;DHT22;6832;51.186;3.236;2023-02-11T01:16:59;13.50;62.30
13521;DHT22;6832;51.186;3.236;2023-02-11T01:19:45;13.50;62.60
13521;DHT22;6832;51.186;3.236;2023-02-11T01:22:12;13.50;62.30
13521;DHT22;6832;51.186;3.236;2023-02-11T01:24:40;13.50;62.30
13521;DHT22;6832;51.186;3.236;2023-02-11T01:27:07;13.50;62.30
13521;DHT22;6832;51.186;3.236;2023-02-11T01:29:34;13.50;62.40
13521;DHT22;6832;51.186;3.236;2023-02-11T01:32:01;13.50;62.40
13521;DHT22;6832;51.186;3.236;2023-02-11T01:34:28;13.50;62.30
13521;DHT22;6832;51.186;3.236;2023-02-11T01:36:57;13.40;62.30
13521;DHT22;6832;51.186;3.236;2023-02-11T01:39:24;13.50;62.40
13521;DHT22;6832;51.186;3.236;2023-02-11T01:42:21;13.50;62.40
13521;DHT22;6832;51.186;3.236;2023-02-11T01:44:52;13.40;62.20
13521;DHT22;6832;51.186;3.236;2023-02-11T01:47:20;13.50;62.40
13521;DHT22;6832;51.186;3.236;2023-02-11T01:49:49;13.50;62.40
13521;DHT22;6832;51.186;3.236;2023-02-11T01:52:42;13.40;62.30
13521;DHT22;6832;51.186;3.236;2023-02-11T01:55:12;13.50;62.30
13521;DHT22;6832;51.186;3.236;2023-02-11T01:58:00;13.50;62.30
13521;DHT22;6832;51.186;3.236;2023-02-11T02:00:31;13.50;62.40
13521;DHT22;6832;51.186;3.236;2023-02-11T02:03:04;13.50;62.50
13521;DHT22;6832;51.186;3.236;2023-02-11T02:05:35;13.50;62.40
13521;DHT22;6832;51.186;3.236;2023-02-11T02:08:10;13.50;62.40
13521;DHT22;6832;51.186;3.236;2023-02-11T02:10:42;13.50;62.50
13521;DHT22;6832;51.186;3.236;2023-02-11T02:13:11;13.50;62.40
13521;DHT22;6832;51.186;3.236;2023-02-11T02:15:40;13.50;62.40
13521;DHT22;6832;51.186;3.236;2023-02-11T02:18:18;13.50;62.50
13521;DHT22;6832;51.186;3.236;2023-02-11T02:24:30;13.50;62.40
13521;DHT22;6832;51.186;3.236;2023-02-11T02:27:20;13.50;62.40
13521;DHT22;6832;51.186;3.236;2023-02-11T02:33:37;13.50;62.30
13521;DHT22;6832;51.186;3.236;2023-02-11T02:36:22;13.50;62.30
13521;DHT22;6832;51.186;3.236;2023-02-11T02:38:55;13.50;62.30
13521;DHT22;6832;51.186;3.236;2023-02-11T02:41:27;13.50;62.30
13521;DHT22;6832;51.186;3.236;2023-02-11T02:43:55;13.50;62.40
13521;DHT22;6832;51.186;3.236;2023-02-11T02:46:26;13.50;62.40
13521;DHT22;6832;51.186;3.236;2023-02-11T02:48:56;13.50;62.40
13521;DHT22;6832;51.186;3.236;2023-02-11T02:57:50;13.50;62.40
13521;DHT22;6832;51.186;3.236;2023-02-11T03:00:25;13.50;62.40
13521;DHT22;6832;51.186;3.236;2023-02-11T03:03:04;13.50;62.40
13521;DHT22;6832;51.186;3.236;2023-02-11T03:05:40;13.50;62.40
13521;DHT22;6832;51.186;3.236;2023-02-11T03:08:16;13.50;62.40
13521;DHT22;6832;51.186;3.236;2023-02-11T03:10:46;13.50;62.40
13521;DHT22;6832;51.186;3.236;2023-02-11T03:13:16;13.50;62.40
13521;DHT22;6832;51.186;3.236;2023-02-11T03:15:46;13.50;62.40
13521;DHT22;6832;51.186;3.236;2023-02-11T03:18:17;13.50;62.40
13521;DHT22;6832;51.186;3.236;2023-02-11T03:20:48;13.60;62.60
13521;DHT22;6832;51.186;3.236;2023-02-11T03:23:20;13.50;62.40
13521;DHT22;6832;51.186;3.236;2023-02-11T03:25:52;13.50;62.40
13521;DHT22;6832;51.186;3.236;2023-02-11T03:28:27;13.50;62.40
13521;DHT22;6832;51.186;3.236;2023-02-11T03:31:02;13.50;62.40
13521;DHT22;6832;51.186;3.236;2023-02-11T03:33:37;13.50;62.30
13521;DHT22;6832;51.186;3.236;2023-02-11T03:36:22;13.50;62.30
13521;DHT22;6832;51.186;3.236;2023-02-11T03:38:54;13.50;62.30
13521;DHT22;6832;51.186;3.236;2023-02-11T03:41:23;13.50;62.40
13521;DHT22;6832;51.186;3.236;2023-02-11T03:43:53;13.50;62.30
13521;DHT22;6832;51.186;3.236;2023-02-11T03:46:28;13.50;62.30
13521;DHT22;6832;51.186;3.236;2023-02-11T03:49:02;13.50;62.40
13521;DHT22;6832;51.186;3.236;2023-02-11T03:51:35;13.50;62.50
13521;DHT22;6832;51.186;3.236;2023-02-11T03:54:06;13.40;62.20
13521;DHT22;6832;51.186;3.236;2023-02-11T03:56:38;13.50;62.30
13521;DHT22;6832;51.186;3.236;2023-02-11T03:59:07;13.50;62.30
13521;DHT22;6832;51.186;3.236;2023-02-11T04:01:34;13.50;62.30
13521;DHT22;6832;51.186;3.236;2023-02-11T04:04:01;13.50;62.30
13521;DHT22;6832;51.186;3.236;2023-02-11T04:06:28;13.50;62.30
13521;DHT22;6832;51.186;3.236;2023-02-11T04:08:56;13.60;62.50
13521;DHT22;6832;51.186;3.236;2023-02-11T04:11:31;13.50;62.30
13521;DHT22;6832;51.186;3.236;2023-02-11T04:13:58;13.50;62.30
13521;DHT22;6832;51.186;3.236;2023-02-11T04:16:25;13.50;62.30
13521;DHT22;6832;51.186;3.236;2023-02-11T04:18:52;13.50;62.30
13521;DHT22;6832;51.186;3.236;2023-02-11T04:21:19;13.40;62.30
13521;DHT22;6832;51.186;3.236;2023-02-11T04:23:46;13.50;62.30
13521;DHT22;6832;51.186;3.236;2023-02-11T04:26:21;13.50;62.30
13521;DHT22;6832;51.186;3.236;2023-02-11T04:28:51;13.40;62.30
13521;DHT22;6832;51.186;3.236;2023-02-11T04:31:19;13.50;62.30
13521;DHT22;6832;51.186;3.236;2023-02-11T04:33:46;13.40;62.30
13521;DHT22;6832;51.186;3.236;2023-02-11T04:36:13;13.40;62.20
13521;DHT22;6832;51.186;3.236;2023-02-11T04:38:41;13.50;62.30
13521;DHT22;6832;51.186;3.236;2023-02-11T04:41:08;13.40;62.30
13521;DHT22;6832;51.186;3.236;2023-02-11T04:43:36;13.40;63.10
13521;DHT22;6832;51.186;3.236;2023-02-11T04:46:03;13.40;62.30
13521;DHT22;6832;51.186;3.236;2023-02-11T04:48:32;13.40;62.20
13521;DHT22;6832;51.186;3.236;2023-02-11T04:51:00;13.40;62.30
13521;DHT22;6832;51.186;3.236;2023-02-11T04:53:28;13.40;62.30
13521;DHT22;6832;51.186;3.236;2023-02-11T04:55:55;13.40;62.20
13521;DHT22;6832;51.186;3.236;2023-02-11T04:58:22;13.40;62.20
13521;DHT22;6832;51.186;3.236;2023-02-11T05:00:50;13.40;62.30
13521;DHT22;6832;51.186;3.236;2023-02-11T05:03:17;13.40;62.20
13521;DHT22;6832;51.186;3.236;2023-02-11T05:05:44;13.40;62.30
13521;DHT22;6832;51.186;3.236;2023-02-11T05:08:11;13.40;62.30
13521;DHT22;6832;51.186;3.236;2023-02-11T05:10:39;13.40;62.30
13521;DHT22;6832;51.186;3.236;2023-02-11T05:13:06;13.40;62.30
13521;DHT22;6832;51.186;3.236;2023-02-11T05:15:32;13.40;62.30
13521;DHT22;6832;51.186;3.236;2023-02-11T05:18:02;13.40;62.30
13521;DHT22;6832;51.186;3.236;2023-02-11T05:20:29;13.40;62.30
13521;DHT22;6832;51.186;3.236;2023-02-11T05:22:56;13.40;62.30
13521;DHT22;6832;51.186;3.236;2023-02-11T05:25:23;13.40;62.30
13521;DHT22;6832;51.186;3.236;2023-02-11T05:27:50;13.40;62.40
13521;DHT22;6832;51.186;3.236;2023-02-11T05:30:18;13.40;62.30
13521;DHT22;6832;51.186;3.236;2023-02-11T05:32:45;13.40;62.30
13521;DHT22;6832;51.186;3.236;2023-02-11T05:35:13;13.40;62.30
13521;DHT22;6832;51.186;3.236;2023-02-11T05:37:40;13.40;62.40
13521;DHT22;6832;51.186;3.236;2023-02-11T05:40:08;13.30;62.30
13521;DHT22;6832;51.186;3.236;2023-02-11T05:42:35;13.30;62.20
13521;DHT22;6832;51.186;3.236;2023-02-11T05:45:03;13.40;62.30
13521;DHT22;6832;51.186;3.236;2023-02-11T05:47:30;13.30;62.20
13521;DHT22;6832;51.186;3.236;2023-02-11T05:49:57;13.30;62.20
13521;DHT22;6832;51.186;3.236;2023-02-11T05:52:26;13.30;62.30
13521;DHT22;6832;51.186;3.236;2023-02-11T05:54:53;13.30;62.30
13521;DHT22;6832;51.186;3.236;2023-02-11T05:59:50;13.30;62.30
13521;DHT22;6832;51.186;3.236;2023-02-11T06:02:17;13.30;62.30
13521;DHT22;6832;51.186;3.236;2023-02-11T06:04:56;13.30;62.20
13521;DHT22;6832;51.186;3.236;2023-02-11T06:07:23;13.30;62.30
13521;DHT22;6832;51.186;3.236;2023-02-11T06:09:53;13.30;62.30
13521;DHT22;6832;51.186;3.236;2023-02-11T06:12:20;13.30;62.30
13521;DHT22;6832;51.186;3.236;2023-02-11T06:14:46;13.30;62.30
13521;DHT22;6832;51.186;3.236;2023-02-11T06:17:13;13.30;62.20
13521;DHT22;6832;51.186;3.236;2023-02-11T06:19:44;13.30;62.30
13521;DHT22;6832;51.186;3.236;2023-02-11T06:22:10;13.30;62.30
13521;DHT22;6832;51.186;3.236;2023-02-11T06:24:37;13.30;62.30
13521;DHT22;6832;51.186;3.236;2023-02-11T06:27:06;13.30;62.30
13521;DHT22;6832;51.186;3.236;2023-02-11T06:29:35;13.30;62.30
13521;DHT22;6832;51.186;3.236;2023-02-11T06:32:02;13.30;62.20
13521;DHT22;6832;51.186;3.236;2023-02-11T06:34:29;13.30;62.30
13521;DHT22;6832;51.186;3.236;2023-02-11T06:36:56;13.30;62.30
13521;DHT22;6832;51.186;3.236;2023-02-11T06:39:23;13.30;62.30
13521;DHT22;6832;51.186;3.236;2023-02-11T06:41:50;13.30;62.30
13521;DHT22;6832;51.186;3.236;2023-02-11T06:44:18;13.30;62.30
13521;DHT22;6832;51.186;3.236;2023-02-11T06:46:45;13.30;62.30
13521;DHT22;6832;51.186;3.236;2023-02-11T06:49:13;13.30;62.30
13521;DHT22;6832;51.186;3.236;2023-02-11T06:51:40;13.30;62.30
13521;DHT22;6832;51.186;3.236;2023-02-11T06:54:07;13.30;62.30
13521;DHT22;6832;51.186;3.236;2023-02-11T06:56:34;13.30;62.30
13521;DHT22;6832;51.186;3.236;2023-02-11T06:59:01;13.30;62.30
13521;DHT22;6832;51.186;3.236;2023-02-11T07:01:29;13.30;62.20
13521;DHT22;6832;51.186;3.236;2023-02-11T07:03:56;13.30;62.30
13521;DHT22;6832;51.186;3.236;2023-02-11T07:06:25;13.30;62.30
13521;DHT22;6832;51.186;3.236;2023-02-11T07:08:54;13.10;62.10
13521;DHT22;6832;51.186;3.236;2023-02-11T07:11:23;13.20;63.00
13521;DHT22;6832;51.186;3.236;2023-02-11T07:13:53;13.30;62.20
13521;DHT22;6832;51.186;3.236;2023-02-11T07:16:20;13.30;62.30
13521;DHT22;6832;51.186;3.236;2023-02-11T07:18:50;13.30;62.30
13521;DHT22;6832;51.186;3.236;2023-02-11T07:21:19;13.20;62.20
13521;DHT22;6832;51.186;3.236;2023-02-11T07:23:47;13.20;62.20
13521;DHT22;6832;51.186;3.236;2023-02-11T07:26:18;13.30;62.30
13521;DHT22;6832;51.186;3.236;2023-02-11T07:28:46;13.30;62.30
13521;DHT22;6832;51.186;3.236;2023-02-11T07:31:15;13.30;62.20
13521;DHT22;6832;51.186;3.236;2023-02-11T07:34:08;13.20;62.20
13521;DHT22;6832;51.186;3.236;2023-02-11T07:36:37;13.20;62.20
13521;DHT22;6832;51.186;3.236;2023-02-11T07:39:05;13.30;62.30
13521;DHT22;6832;51.186;3.236;2023-02-11T07:41:32;13.20;62.20
13521;DHT22;6832;51.186;3.236;2023-02-11T07:44:01;13.20;62.20
13521;DHT22;6832;51.186;3.236;2023-02-11T07:46:28;13.20;62.20
13521;DHT22;6832;51.186;3.236;2023-02-11T07:48:56;13.20;62.20
13521;DHT22;6832;51.186;3.236;2023-02-11T07:51:26;13.20;62.30
13521;DHT22;6832;51.186;3.236;2023-02-11T07:53:54;13.20;63.10
13521;DHT22;6832;51.186;3.236;2023-02-11T07:56:23;13.20;62.30
13521;DHT22;6832;51.186;3.236;2023-02-11T07:58:50;13.20;62.30
13521;DHT22;6832;51.186;3.236;2023-02-11T08:01:19;13.30;62.40
13521;DHT22;6832;51.186;3.236;2023-02-11T08:03:47;13.20;63.10
13521;DHT22;6832;51.186;3.236;2023-02-11T08:06:17;13.20;62.20
13521;DHT22;6832;51.186;3.236;2023-02-11T08:08:47;13.20;62.30
13521;DHT22;6832;51.186;3.236;2023-02-11T08:11:15;13.20;62.40
13521;DHT22;6832;51.186;3.236;2023-02-11T08:13:43;13.20;62.40
13521;DHT22;6832;51.186;3.236;2023-02-11T08:16:16;13.20;62.40
13521;DHT22;6832;51.186;3.236;2023-02-11T08:18:44;13.20;62.40
13521;DHT22;6832;51.186;3.236;2023-02-11T08:21:10;13.20;62.40
13521;DHT22;6832;51.186;3.236;2023-02-11T08:23:40;13.20;62.40
13521;DHT22;6832;51.186;3.236;2023-02-11T08:26:12;13.20;62.40
13521;DHT22;6832;51.186;3.236;2023-02-11T08:28:42;13.20;62.40
13521;DHT22;6832;51.186;3.236;2023-02-11T08:31:15;13.20;63.20
13521;DHT22;6832;51.186;3.236;2023-02-11T08:33:42;13.20;62.40
13521;DHT22;6832;51.186;3.236;2023-02-11T08:36:11;13.20;62.50
13521;DHT22;6832;51.186;3.236;2023-02-11T08:38:38;13.20;62.50
13521;DHT22;6832;51.186;3.236;2023-02-11T08:41:07;13.20;62.40
13521;DHT22;6832;51.186;3.236;2023-02-11T08:43:36;13.20;63.20
13521;DHT22;6832;51.186;3.236;2023-02-11T08:46:06;13.20;62.40
13521;DHT22;6832;51.186;3.236;2023-02-11T08:48:33;13.20;62.40
13521;DHT22;6832;51.186;3.236;2023-02-11T08:51:05;13.20;62.50
13521;DHT22;6832;51.186;3.236;2023-02-11T08:53:33;13.20;62.50
13521;DHT22;6832;51.186;3.236;2023-02-11T08:55:59;13.20;62.50
13521;DHT22;6832;51.186;3.236;2023-02-11T08:58:28;13.20;62.50
13521;DHT22;6832;51.186;3.236;2023-02-11T09:00:56;13.20;62.50
13521;DHT22;6832;51.186;3.236;2023-02-11T09:03:23;13.20;62.50
13521;DHT22;6832;51.186;3.236;2023-02-11T09:05:50;13.30;62.60
13521;DHT22;6832;51.186;3.236;2023-02-11T09:08:18;13.20;62.40
13521;DHT22;6832;51.186;3.236;2023-02-11T09:10:46;13.30;62.50
13521;DHT22;6832;51.186;3.236;2023-02-11T09:13:13;13.30;62.70
13521;DHT22;6832;51.186;3.236;2023-02-11T09:15:44;13.30;62.60
13521;DHT22;6832;51.186;3.236;2023-02-11T09:18:13;13.30;62.70
13521;DHT22;6832;51.186;3.236;2023-02-11T09:20:40;13.20;62.50
13521;DHT22;6832;51.186;3.236;2023-02-11T09:23:13;13.30;62.70
13521;DHT22;6832;51.186;3.236;2023-02-11T09:25:42;13.30;62.70
13521;DHT22;6832;51.186;3.236;2023-02-11T09:28:09;13.30;62.70
13521;DHT22;6832;51.186;3.236;2023-02-11T09:30:37;13.30;62.70
13521;DHT22;6832;51.186;3.236;2023-02-11T09:33:04;13.30;62.80
13521;DHT22;6832;51.186;3.236;2023-02-11T09:35:33;13.30;62.90
13521;DHT22;6832;51.186;3.236;2023-02-11T09:38:00;13.30;62.90
13521;DHT22;6832;51.186;3.236;2023-02-11T09:40:27;13.30;62.80
13521;DHT22;6832;51.186;3.236;2023-02-11T09:43:02;13.30;62.90
13521;DHT22;6832;51.186;3.236;2023-02-11T09:45:31;13.30;63.00
13521;DHT22;6832;51.186;3.236;2023-02-11T09:48:00;13.30;62.90
13521;DHT22;6832;51.186;3.236;2023-02-11T09:50:37;13.40;63.00
13521;DHT22;6832;51.186;3.236;2023-02-11T09:53:13;13.30;63.00
13521;DHT22;6832;51.186;3.236;2023-02-11T09:55:42;13.30;63.00
13521;DHT22;6832;51.186;3.236;2023-02-11T09:58:12;13.40;63.00
13521;DHT22;6832;51.186;3.236;2023-02-11T10:00:43;13.40;63.00
13521;DHT22;6832;51.186;3.236;2023-02-11T10:03:31;13.30;63.00
13521;DHT22;6832;51.186;3.236;2023-02-11T10:09:15;13.40;63.10
13521;DHT22;6832;51.186;3.236;2023-02-11T10:11:51;13.40;63.10
13521;DHT22;6832;51.186;3.236;2023-02-11T10:14:34;13.40;63.20
13521;DHT22;6832;51.186;3.236;2023-02-11T10:17:16;13.40;63.20
13521;DHT22;6832;51.186;3.236;2023-02-11T10:19:53;13.40;63.20
13521;DHT22;6832;51.186;3.236;2023-02-11T10:22:28;13.40;63.20
13521;DHT22;6832;51.186;3.236;2023-02-11T10:24:57;13.40;63.10
13521;DHT22;6832;51.186;3.236;2023-02-11T10:27:28;13.40;63.20
13521;DHT22;6832;51.186;3.236;2023-02-11T10:30:00;13.40;63.20
13521;DHT22;6832;51.186;3.236;2023-02-11T10:32:34;13.40;63.10
13521;DHT22;6832;51.186;3.236;2023-02-11T10:35:12;13.40;63.10
13521;DHT22;6832;51.186;3.236;2023-02-11T10:37:42;13.40;63.10
13521;DHT22;6832;51.186;3.236;2023-02-11T10:40:12;13.50;64.00
13521;DHT22;6832;51.186;3.236;2023-02-11T10:42:41;13.50;63.30
13521;DHT22;6832;51.186;3.236;2023-02-11T10:45:16;13.50;63.30
13521;DHT22;6832;51.186;3.236;2023-02-11T10:47:44;13.40;63.10
13521;DHT22;6832;51.186;3.236;2023-02-11T10:50:21;13.40;63.10
13521;DHT22;6832;51.186;3.236;2023-02-11T10:53:11;13.50;63.30
13521;DHT22;6832;51.186;3.236;2023-02-11T10:55:38;13.50;63.30
13521;DHT22;6832;51.186;3.236;2023-02-11T10:58:23;13.50;63.20
13521;DHT22;6832;51.186;3.236;2023-02-11T11:00:52;13.50;63.20
13521;DHT22;6832;51.186;3.236;2023-02-11T11:03:22;13.50;63.10
13521;DHT22;6832;51.186;3.236;2023-02-11T11:05:59;13.50;63.10
13521;DHT22;6832;51.186;3.236;2023-02-11T11:08:43;13.50;63.20
13521;DHT22;6832;51.186;3.236;2023-02-11T11:11:12;13.50;63.30
13521;DHT22;6832;51.186;3.236;2023-02-11T11:13:41;13.50;63.30
13521;DHT22;6832;51.186;3.236;2023-02-11T11:16:19;13.50;63.30
13521;DHT22;6832;51.186;3.236;2023-02-11T11:18:48;13.50;63.30
13521;DHT22;6832;51.186;3.236;2023-02-11T11:21:19;13.60;63.40
13521;DHT22;6832;51.186;3.236;2023-02-11T11:23:53;13.50;63.30
13521;DHT22;6832;51.186;3.236;2023-02-11T11:26:21;13.60;63.50
13521;DHT22;6832;51.186;3.236;2023-02-11T11:28:57;13.60;63.50
13521;DHT22;6832;51.186;3.236;2023-02-11T11:31:29;13.60;63.70
13521;DHT22;6832;51.186;3.236;2023-02-11T11:33:58;13.60;63.70
13521;DHT22;6832;51.186;3.236;2023-02-11T11:36:36;13.60;63.70
13521;DHT22;6832;51.186;3.236;2023-02-11T11:39:17;13.60;63.50
13521;DHT22;6832;51.186;3.236;2023-02-11T11:41:51;13.60;63.90
13521;DHT22;6832;51.186;3.236;2023-02-11T11:44:30;13.60;64.00
13521;DHT22;6832;51.186;3.236;2023-02-11T11:47:24;13.60;64.20
13521;DHT22;6832;51.186;3.236;2023-02-11T11:50:24;13.70;64.40
13521;DHT22;6832;51.186;3.236;2023-02-11T11:52:57;13.70;64.40
13521;DHT22;6832;51.186;3.236;2023-02-11T11:55:37;13.70;64.30
13521;DHT22;6832;51.186;3.236;2023-02-11T11:58:21;13.70;64.50
13521;DHT22;6832;51.186;3.236;2023-02-11T12:00:55;13.70;65.20
13521;DHT22;6832;51.186;3.236;2023-02-11T12:06:39;13.80;64.50
13521;DHT22;6832;51.186;3.236;2023-02-11T12:09:42;13.80;64.40
13521;DHT22;6832;51.186;3.236;2023-02-11T12:15:49;13.80;64.30
13521;DHT22;6832;51.186;3.236;2023-02-11T12:18:33;13.90;64.80
13521;DHT22;6832;51.186;3.236;2023-02-11T12:21:13;13.90;65.10
13521;DHT22;6832;51.186;3.236;2023-02-11T12:23:51;13.90;65.30
13521;DHT22;6832;51.186;3.236;2023-02-11T12:26:30;14.00;65.70
13521;DHT22;6832;51.186;3.236;2023-02-11T12:29:11;14.00;65.80
13521;DHT22;6832;51.186;3.236;2023-02-11T12:31:55;14.00;66.00
13521;DHT22;6832;51.186;3.236;2023-02-11T12:37:45;14.20;66.70
13521;DHT22;6832;51.186;3.236;2023-02-11T12:40:18;14.20;66.40
13521;DHT22;6832;51.186;3.236;2023-02-11T12:43:01;14.30;66.50
13521;DHT22;6832;51.186;3.236;2023-02-11T12:49:37;14.40;66.80
13521;DHT22;6832;51.186;3.236;2023-02-11T12:52:23;14.40;66.90
13521;DHT22;6832;51.186;3.236;2023-02-11T12:54:57;14.50;66.80
13521;DHT22;6832;51.186;3.236;2023-02-11T12:57:28;14.50;66.60
13521;DHT22;6832;51.186;3.236;2023-02-11T13:00:23;14.50;66.60
13521;DHT22;6832;51.186;3.236;2023-02-11T13:02:58;14.60;67.00
13521;DHT22;6832;51.186;3.236;2023-02-11T13:05:30;14.60;66.60
13521;DHT22;6832;51.186;3.236;2023-02-11T13:08:16;14.70;66.70
13521;DHT22;6832;51.186;3.236;2023-02-11T13:10:49;14.70;66.70
13521;DHT22;6832;51.186;3.236;2023-02-11T13:13:21;14.70;66.70
13521;DHT22;6832;51.186;3.236;2023-02-11T13:15:53;14.80;66.70
13521;DHT22;6832;51.186;3.236;2023-02-11T13:18:33;14.70;66.50
13521;DHT22;6832;51.186;3.236;2023-02-11T13:21:20;14.80;66.80
13521;DHT22;6832;51.186;3.236;2023-02-11T13:23:56;14.80;66.80
13521;DHT22;6832;51.186;3.236;2023-02-11T13:26:30;14.80;66.60
13521;DHT22;6832;51.186;3.236;2023-02-11T13:29:08;14.90;66.70
13521;DHT22;6832;51.186;3.236;2023-02-11T13:31:37;14.90;66.70
13521;DHT22;6832;51.186;3.236;2023-02-11T13:34:23;14.90;66.40
13521;DHT22;6832;51.186;3.236;2023-02-11T13:36:56;14.90;66.70
13521;DHT22;6832;51.186;3.236;2023-02-11T13:39:23;15.00;66.60
13521;DHT22;6832;51.186;3.236;2023-02-11T13:42:01;15.00;66.50
13521;DHT22;6832;51.186;3.236;2023-02-11T13:44:28;14.90;67.20
13521;DHT22;6832;51.186;3.236;2023-02-11T13:47:01;15.00;66.40
13521;DHT22;6832;51.186;3.236;2023-02-11T13:49:34;15.00;66.40
13521;DHT22;6832;51.186;3.236;2023-02-11T13:52:20;15.00;66.50
13521;DHT22;6832;51.186;3.236;2023-02-11T13:54:58;15.00;66.50
13521;DHT22;6832;51.186;3.236;2023-02-11T13:57:44;15.00;66.20
13521;DHT22;6832;51.186;3.236;2023-02-11T14:03:36;15.00;66.40
13521;DHT22;6832;51.186;3.236;2023-02-11T14:06:24;15.00;66.40
13521;DHT22;6832;51.186;3.236;2023-02-11T14:09:33;15.00;66.10
13521;DHT22;6832;51.186;3.236;2023-02-11T14:15:19;15.00;66.40
13521;DHT22;6832;51.186;3.236;2023-02-11T14:17:46;15.00;66.20
13521;DHT22;6832;51.186;3.236;2023-02-11T14:20:41;15.00;66.10
13521;DHT22;6832;51.186;3.236;2023-02-11T14:23:24;15.00;66.40
13521;DHT22;6832;51.186;3.236;2023-02-11T14:26:15;15.00;66.20
13521;DHT22;6832;51.186;3.236;2023-02-11T14:28:51;15.00;66.20
13521;DHT22;6832;51.186;3.236;2023-02-11T14:31:25;15.00;66.10
13521;DHT22;6832;51.186;3.236;2023-02-11T14:34:07;15.00;66.10
13521;DHT22;6832;51.186;3.236;2023-02-11T14:37:01;15.00;66.10
13521;DHT22;6832;51.186;3.236;2023-02-11T14:39:45;15.00;66.20
13521;DHT22;6832;51.186;3.236;2023-02-11T14:42:21;15.10;66.20
13521;DHT22;6832;51.186;3.236;2023-02-11T14:44:53;15.10;66.20
13521;DHT22;6832;51.186;3.236;2023-02-11T14:47:24;15.00;66.00
13521;DHT22;6832;51.186;3.236;2023-02-11T14:50:23;15.00;66.10
13521;DHT22;6832;51.186;3.236;2023-02-11T14:53:16;15.10;66.20
13521;DHT22;6832;51.186;3.236;2023-02-11T14:56:16;15.00;66.10
13521;DHT22;6832;51.186;3.236;2023-02-11T14:58:47;15.00;66.10
13521;DHT22;6832;51.186;3.236;2023-02-11T15:01:26;15.00;66.00
13521;DHT22;6832;51.186;3.236;2023-02-11T15:03:54;15.00;66.10
13521;DHT22;6832;51.186;3.236;2023-02-11T15:06:25;15.00;66.00
13521;DHT22;6832;51.186;3.236;2023-02-11T15:08:57;15.00;66.10
13521;DHT22;6832;51.186;3.236;2023-02-11T15:11:28;15.00;66.00
13521;DHT22;6832;51.186;3.236;2023-02-11T15:17:05;15.10;66.20
13521;DHT22;6832;51.186;3.236;2023-02-11T15:19:51;15.00;66.00
13521;DHT22;6832;51.186;3.236;2023-02-11T15:22:21;15.00;66.10
13521;DHT22;6832;51.186;3.236;2023-02-11T15:25:02;15.00;66.10
13521;DHT22;6832;51.186;3.236;2023-02-11T15:27:39;15.00;66.00
13521;DHT22;6832;51.186;3.236;2023-02-11T15:30:23;14.90;65.90
13521;DHT22;6832;51.186;3.236;2023-02-11T15:32:58;15.00;66.10
13521;DHT22;6832;51.186;3.236;2023-02-11T15:35:36;15.00;66.00
13521;DHT22;6832;51.186;3.236;2023-02-11T15:38:04;15.00;66.00
13521;DHT22;6832;51.186;3.236;2023-02-11T15:40:33;15.00;66.10
13521;DHT22;6832;51.186;3.236;2023-02-11T15:43:01;15.00;66.00
13521;DHT22;6832;51.186;3.236;2023-02-11T15:45:30;15.00;66.10
13521;DHT22;6832;51.186;3.236;2023-02-11T15:48:05;15.00;66.10
13521;DHT22;6832;51.186;3.236;2023-02-11T15:50:35;15.00;66.20
13521;DHT22;6832;51.186;3.236;2023-02-11T15:53:18;15.00;66.20
13521;DHT22;6832;51.186;3.236;2023-02-11T15:55:46;15.00;66.40
13521;DHT22;6832;51.186;3.236;2023-02-11T15:58:14;15.00;66.20
13521;DHT22;6832;51.186;3.236;2023-02-11T16:00:46;15.00;66.20
13521;DHT22;6832;51.186;3.236;2023-02-11T16:03:42;15.00;66.40
13521;DHT22;6832;51.186;3.236;2023-02-11T16:06:17;15.10;66.50
13521;DHT22;6832;51.186;3.236;2023-02-11T16:09:20;15.00;66.50
13521;DHT22;6832;51.186;3.236;2023-02-11T16:11:56;15.00;66.60
13521;DHT22;6832;51.186;3.236;2023-02-11T16:14:31;15.00;66.50
13521;DHT22;6832;51.186;3.236;2023-02-11T16:17:03;15.10;66.70
13521;DHT22;6832;51.186;3.236;2023-02-11T16:19:33;15.00;66.50
13521;DHT22;6832;51.186;3.236;2023-02-11T16:22:07;15.00;66.50
13521;DHT22;6832;51.186;3.236;2023-02-11T16:24:39;15.10;66.70
13521;DHT22;6832;51.186;3.236;2023-02-11T16:27:36;15.10;66.70
13521;DHT22;6832;51.186;3.236;2023-02-11T16:30:26;15.10;66.70
13521;DHT22;6832;51.186;3.236;2023-02-11T16:32:54;15.00;67.90
13521;DHT22;6832;51.186;3.236;2023-02-11T16:35:23;15.00;67.50
13521;DHT22;6832;51.186;3.236;2023-02-11T16:37:52;15.10;67.20
13521;DHT22;6832;51.186;3.236;2023-02-11T16:40:22;15.20;67.10
13521;DHT22;6832;51.186;3.236;2023-02-11T16:42:50;15.20;67.40
13521;DHT22;6832;51.186;3.236;2023-02-11T16:45:18;15.20;67.20
13521;DHT22;6832;51.186;3.236;2023-02-11T16:47:45;15.20;67.00
13521;DHT22;6832;51.186;3.236;2023-02-11T16:53:21;15.30;67.00
13521;DHT22;6832;51.186;3.236;2023-02-11T16:56:29;15.30;66.90
13521;DHT22;6832;51.186;3.236;2023-02-11T16:58:57;15.30;66.80
13521;DHT22;6832;51.186;3.236;2023-02-11T17:01:28;15.30;66.50
13521;DHT22;6832;51.186;3.236;2023-02-11T17:03:55;15.40;66.70
13521;DHT22;6832;51.186;3.236;2023-02-11T17:06:22;15.40;66.60